createdAt,value
2022-09-28T00:01:18.476Z,73.53
2022-09-28T00:03:49.437Z,73.52
2022-09-28T00:06:23.424Z,73.30
2022-09-28T00:08:52.105Z,73.56
2022-09-28T00:11:23.616Z,74.06
2022-09-28T00:13:56.541Z,73.79
2022-09-28T00:16:27.853Z,73.04
2022-09-28T00:18:56.635Z,73.73
2022-09-28T00:21:29.273Z,74.87
2022-09-28T00:24:15.979Z,75.10
2022-09-28T00:26:48.318Z,74.80
2022-09-28T00:29:24.154Z,75.23
2022-09-28T00:31:59.703Z,74.89
2022-09-28T00:34:28.457Z,75.71
2022-09-28T00:36:57.787Z,75.21
2022-09-28T00:39:26.999Z,73.57
2022-09-28T00:41:56.002Z,74.30
2022-09-28T00:44:49.679Z,74.80
2022-09-28T00:47:28.217Z,73.99
2022-09-28T00:50:03.560Z,74.54
2022-09-28T00:52:40.610Z,73.85
2022-09-28T00:55:14.591Z,73.45
2022-09-28T00:57:49.376Z,73.81
2022-09-28T01:00:17.741Z,74.12
2022-09-28T01:02:47.739Z,74.33
2022-09-28T01:05:17.917Z,75.11
2022-09-28T01:07:48.813Z,75.18
2022-09-28T01:10:17.193Z,75.23
2022-09-28T01:12:45.293Z,75.06
2022-09-28T01:15:14.670Z,75.35
2022-09-28T01:18:12.761Z,75.04
2022-09-28T01:21:01.101Z,74.44
2022-09-28T01:23:54.939Z,74.64
2022-09-28T01:26:50.747Z,75.72
2022-09-28T01:29:37.066Z,76.55
2022-09-28T01:32:17.506Z,76.78
2022-09-28T01:34:55.454Z,76.14
2022-09-28T01:37:32.068Z,76.37
2022-09-28T01:40:03.719Z,76.08
2022-09-28T01:42:38.725Z,75.96
2022-09-28T01:45:15.328Z,74.85
2022-09-28T01:47:47.767Z,74.99
2022-09-28T01:50:23.255Z,76.08
2022-09-28T01:52:58.597Z,75.98
2022-09-28T01:55:32.463Z,76.31
2022-09-28T01:58:09.805Z,76.37
2022-09-28T02:00:44.389Z,77.33
2022-09-28T02:03:18.276Z,78.31
2022-09-28T02:05:55.630Z,78.36
2022-09-28T02:08:32.722Z,78.85
2022-09-28T02:11:10.287Z,79.12
2022-09-28T02:13:45.376Z,79.24
2022-09-28T02:16:21.196Z,79.49
2022-09-28T02:18:49.532Z,79.30
2022-09-28T02:21:24.870Z,79.43
2022-09-28T02:24:01.052Z,79.07
2022-09-28T02:26:35.912Z,79.51
2022-09-28T02:29:05.475Z,79.54
2022-09-28T02:31:33.653Z,78.89
2022-09-28T02:34:01.832Z,78.79
2022-09-28T02:36:30.761Z,78.71
2022-09-28T02:39:01.144Z,78.68
2022-09-28T02:41:47.307Z,79.05
2022-09-28T02:44:35.852Z,78.79
2022-09-28T02:47:16.729Z,79.23
2022-09-28T02:49:58.040Z,78.99
2022-09-28T02:52:58.233Z,78.64
2022-09-28T02:55:44.546Z,78.87
2022-09-28T02:58:26.188Z,77.90
2022-09-28T03:01:06.582Z,78.19
2022-09-28T03:03:49.446Z,78.43
2022-09-28T03:06:27.614Z,78.57
2022-09-28T03:09:06.772Z,78.62
2022-09-28T03:11:41.683Z,78.16
2022-09-28T03:14:10.974Z,78.22
2022-09-28T03:16:44.750Z,78.18
2022-09-28T03:19:13.924Z,78.57
2022-09-28T03:21:42.168Z,77.28
2022-09-28T03:24:11.088Z,76.98
2022-09-28T03:26:40.265Z,76.35
2022-09-28T03:29:08.576Z,74.48
2022-09-28T03:31:36.652Z,72.99
2022-09-28T03:34:06.199Z,74.11
2022-09-28T03:36:34.293Z,74.79
2022-09-28T03:39:02.366Z,75.29
2022-09-28T03:41:30.379Z,74.75
2022-09-28T03:43:58.389Z,73.94
2022-09-28T03:46:26.379Z,73.40
2022-09-28T03:48:58.165Z,73.45
2022-09-28T03:51:27.582Z,72.89
2022-09-28T03:53:55.514Z,72.72
2022-09-28T03:56:23.557Z,72.14
2022-09-28T03:58:51.553Z,71.62
2022-09-28T04:01:19.663Z,71.40
2022-09-28T04:03:48.731Z,72.74
2022-09-28T04:06:16.973Z,72.47
2022-09-28T04:08:46.305Z,71.94
2022-09-28T04:11:14.303Z,72.11
2022-09-28T04:13:42.715Z,72.16
2022-09-28T04:16:12.020Z,72.68
2022-09-28T04:18:40.264Z,72.89
2022-09-28T04:21:15.298Z,73.36
2022-09-28T04:23:44.220Z,72.54
2022-09-28T04:26:18.080Z,72.67
2022-09-28T04:29:10.007Z,73.35
2022-09-28T04:31:44.529Z,72.50
2022-09-28T04:34:14.711Z,72.20
2022-09-28T04:36:42.841Z,72.31
2022-09-28T04:39:12.249Z,73.31
2022-09-28T04:41:41.738Z,73.38
2022-09-28T04:44:10.748Z,73.27
2022-09-28T04:46:38.804Z,73.36
2022-09-28T04:49:06.847Z,73.50
2022-09-28T04:51:34.864Z,73.20
2022-09-28T04:54:02.893Z,73.72
2022-09-28T04:56:30.886Z,73.64
2022-09-28T04:59:00.224Z,73.87
2022-09-28T05:01:29.976Z,72.97
2022-09-28T05:03:57.999Z,73.08
2022-09-28T05:06:28.021Z,72.67
2022-09-28T05:08:57.299Z,72.69
2022-09-28T05:11:25.273Z,72.73
2022-09-28T05:13:53.231Z,72.59
2022-09-28T05:16:22.685Z,72.27
2022-09-28T05:18:50.721Z,72.11
2022-09-28T05:21:20.081Z,71.97
2022-09-28T05:23:48.741Z,71.62
2022-09-28T05:26:16.822Z,71.57
2022-09-28T05:28:45.089Z,71.52
2022-09-28T05:31:13.104Z,71.23
2022-09-28T05:33:42.422Z,71.78
2022-09-28T05:36:12.021Z,71.59
2022-09-28T05:38:40.111Z,72.19
2022-09-28T05:41:08.114Z,72.08
2022-09-28T05:43:36.276Z,71.60
2022-09-28T05:46:04.496Z,71.75
2022-09-28T05:48:32.916Z,71.90
2022-09-28T05:51:02.244Z,71.69
2022-09-28T05:53:30.377Z,71.89
2022-09-28T05:56:00.092Z,72.28
2022-09-28T05:58:29.239Z,72.33
2022-09-28T06:00:58.499Z,71.51
2022-09-28T06:03:27.005Z,71.70
2022-09-28T06:05:55.585Z,72.00
2022-09-28T06:08:24.986Z,72.62
2022-09-28T06:10:52.954Z,73.27
2022-09-28T06:13:21.028Z,73.71
2022-09-28T06:15:49.014Z,74.04
2022-09-28T06:18:17.022Z,73.24
2022-09-28T06:20:45.029Z,74.45
2022-09-28T06:23:14.448Z,75.61
2022-09-28T06:25:43.767Z,76.53
2022-09-28T06:28:14.738Z,76.99
2022-09-28T06:30:45.057Z,77.42
2022-09-28T06:33:16.262Z,77.95
2022-09-28T06:35:44.319Z,78.45
2022-09-28T06:38:12.862Z,79.16
2022-09-28T06:40:40.837Z,79.77
2022-09-28T06:43:14.926Z,79.60
2022-09-28T06:45:44.280Z,80.04
2022-09-28T06:48:13.781Z,80.37
2022-09-28T06:50:42.568Z,79.12
2022-09-28T06:53:14.604Z,79.35
2022-09-28T06:55:46.026Z,80.56
2022-09-28T06:58:19.497Z,81.06
2022-09-28T07:00:50.702Z,80.58
2022-09-28T07:03:21.579Z,81.04
2022-09-28T07:05:53.990Z,81.27
2022-09-28T07:08:24.767Z,81.68
2022-09-28T07:10:56.235Z,81.75
2022-09-28T07:16:16.501Z,81.96
2022-09-28T07:18:44.603Z,81.60
2022-09-28T07:21:24.151Z,82.36
2022-09-28T07:23:55.055Z,82.86
2022-09-28T07:26:24.607Z,82.80
2022-09-28T07:28:55.980Z,82.60
2022-09-28T07:31:26.102Z,82.63
2022-09-28T07:33:54.306Z,82.73
2022-09-28T07:36:22.875Z,82.97
2022-09-28T07:38:51.257Z,83.81
2022-09-28T07:41:22.732Z,83.82
2022-09-28T07:43:50.990Z,83.83
2022-09-28T07:46:21.816Z,84.00
2022-09-28T07:48:51.666Z,83.94
2022-09-28T07:51:21.124Z,83.68
2022-09-28T07:53:49.088Z,83.06
2022-09-28T07:56:20.351Z,83.15
2022-09-28T07:58:49.578Z,82.34
2022-09-28T08:01:19.226Z,82.63
2022-09-28T08:03:48.738Z,83.25
2022-09-28T08:06:18.605Z,83.69
2022-09-28T08:08:46.671Z,81.86
2022-09-28T08:11:17.805Z,81.31
2022-09-28T08:13:47.593Z,81.50
2022-09-28T08:16:15.710Z,81.73
2022-09-28T08:18:43.767Z,82.48
2022-09-28T08:21:30.642Z,82.75
2022-09-28T08:23:58.739Z,82.57
2022-09-28T08:26:26.796Z,82.12
2022-09-28T08:28:54.800Z,81.98
2022-09-28T08:31:22.872Z,81.99
2022-09-28T08:33:53.692Z,80.39
2022-09-28T08:36:23.965Z,80.19
2022-09-28T08:38:52.031Z,80.16
2022-09-28T08:41:36.778Z,79.79
2022-09-28T08:44:23.928Z,79.82
2022-09-28T08:46:57.872Z,78.34
2022-09-28T08:49:33.208Z,79.12
2022-09-28T08:52:08.815Z,80.12
2022-09-28T08:54:45.496Z,79.93
2022-09-28T08:57:19.999Z,80.43
2022-09-28T08:59:53.328Z,80.34
2022-09-28T09:02:28.582Z,80.46
2022-09-28T09:04:58.812Z,80.16
2022-09-28T09:08:00.739Z,80.33
2022-09-28T09:10:51.985Z,80.51
2022-09-28T09:14:06.794Z,80.59
2022-09-28T09:16:59.961Z,79.29
2022-09-28T09:19:45.070Z,77.68
2022-09-28T09:22:22.806Z,77.32
2022-09-28T09:25:01.592Z,76.99
2022-09-28T09:27:49.495Z,76.69
2022-09-28T09:30:22.046Z,75.79
2022-09-28T09:33:14.185Z,74.81
2022-09-28T09:36:06.500Z,74.39
2022-09-28T09:38:53.754Z,73.80
2022-09-28T09:41:41.488Z,72.99
2022-09-28T09:44:52.358Z,71.67
2022-09-28T09:47:25.459Z,71.90
2022-09-28T09:50:05.349Z,71.71
2022-09-28T09:52:51.986Z,72.03
2022-09-28T09:55:29.845Z,71.67
2022-09-28T09:58:10.492Z,68.83
2022-09-28T10:00:43.804Z,69.67
2022-09-28T10:03:24.438Z,70.44
2022-09-28T10:06:01.299Z,70.08
2022-09-28T10:08:34.951Z,67.80
2022-09-28T10:11:12.721Z,67.72
2022-09-28T10:13:42.828Z,65.07
2022-09-28T10:16:10.962Z,65.23
2022-09-28T10:18:39.905Z,65.31
2022-09-28T10:21:08.047Z,65.28
2022-09-28T10:23:39.786Z,64.19
2022-09-28T10:26:15.573Z,64.27
2022-09-28T10:28:53.097Z,65.23
2022-09-28T10:31:43.084Z,66.48
2022-09-28T10:34:15.291Z,66.49
2022-09-28T10:36:55.158Z,68.32
2022-09-28T10:39:33.654Z,69.24
2022-09-28T10:42:07.072Z,70.26
2022-09-28T10:44:51.554Z,71.57
2022-09-28T10:47:23.236Z,72.71
2022-09-28T10:49:54.935Z,72.96
2022-09-28T10:52:41.466Z,71.64
2022-09-28T10:55:36.861Z,71.06
2022-09-28T10:58:28.182Z,70.71
2022-09-28T11:01:09.078Z,71.65
2022-09-28T11:03:51.585Z,73.02
2022-09-28T11:06:28.086Z,72.88
2022-09-28T11:09:01.400Z,72.27
2022-09-28T11:11:31.323Z,72.01
2022-09-28T11:14:03.401Z,70.99
2022-09-28T11:16:36.092Z,70.28
2022-09-28T11:19:25.373Z,68.64
2022-09-28T11:21:53.510Z,68.06
2022-09-28T11:24:25.468Z,66.87
2022-09-28T11:26:57.427Z,66.55
2022-09-28T11:29:36.061Z,66.17
2022-09-28T11:32:07.606Z,66.04
2022-09-28T11:34:58.528Z,64.82
2022-09-28T11:38:04.388Z,66.02
2022-09-28T11:40:52.297Z,65.13
2022-09-28T11:43:41.065Z,62.77
2022-09-28T11:46:22.420Z,63.46
2022-09-28T11:48:59.295Z,60.29
2022-09-28T11:51:32.874Z,61.50
2022-09-28T11:54:14.237Z,60.78
2022-09-28T11:56:48.677Z,61.38
2022-09-28T11:59:25.920Z,61.10
2022-09-28T12:01:58.304Z,58.18
2022-09-28T12:04:36.894Z,60.26
2022-09-28T12:07:13.269Z,59.41
2022-09-28T12:09:51.060Z,58.02
2022-09-28T12:12:28.165Z,60.07
2022-09-28T12:15:02.672Z,59.17
2022-09-28T12:17:41.094Z,59.63
2022-09-28T12:20:22.177Z,59.64
2022-09-28T12:23:06.771Z,58.27
2022-09-28T12:25:52.968Z,59.94
2022-09-28T12:28:36.001Z,60.68
2022-09-28T12:31:18.138Z,60.18
2022-09-28T12:33:51.832Z,59.79
2022-09-28T12:36:42.237Z,61.02
2022-09-28T12:39:56.470Z,61.55
2022-09-28T12:42:47.144Z,62.06
2022-09-28T12:46:06.680Z,59.86
2022-09-28T12:49:36.716Z,58.23
2022-09-28T12:51:52.379Z,61.07
2022-09-28T12:54:53.315Z,60.98
2022-09-28T12:57:42.007Z,62.84
2022-09-28T13:00:15.833Z,62.86
2022-09-28T13:03:28.970Z,64.68
2022-09-28T13:06:26.790Z,66.87
2022-09-28T13:09:21.653Z,68.03
2022-09-28T13:12:11.473Z,69.62
2022-09-28T13:15:15.424Z,69.35
2022-09-28T13:18:00.321Z,68.96
2022-09-28T13:20:45.655Z,69.13
2022-09-28T13:23:22.071Z,66.42
2022-09-28T13:25:58.749Z,66.14
2022-09-28T13:28:29.994Z,65.79
2022-09-28T13:31:00.496Z,64.10
2022-09-28T13:33:35.686Z,64.90
2022-09-28T13:36:05.649Z,64.97
2022-09-28T13:38:56.432Z,62.39
2022-09-28T13:41:31.737Z,63.62
2022-09-28T13:44:54.357Z,64.59
2022-09-28T13:47:46.484Z,65.83
2022-09-28T13:50:34.310Z,65.56
2022-09-28T13:53:17.208Z,66.17
2022-09-28T13:56:01.576Z,64.70
2022-09-28T13:58:39.379Z,64.83
2022-09-28T14:01:14.171Z,65.56
2022-09-28T14:03:57.235Z,66.70
2022-09-28T14:06:29.279Z,64.19
2022-09-28T14:10:11.324Z,64.21
2022-09-28T14:12:49.190Z,62.00
2022-09-28T14:16:15.156Z,62.44
2022-09-28T14:18:45.445Z,63.78
2022-09-28T14:21:59.584Z,63.61
2022-09-28T14:24:57.704Z,64.28
2022-09-28T14:28:07.057Z,60.51
2022-09-28T14:30:50.293Z,60.96
2022-09-28T14:33:27.497Z,62.07
2022-09-28T14:36:02.130Z,62.98
2022-09-28T14:38:53.065Z,62.89
2022-09-28T14:41:33.709Z,64.58
2022-09-28T14:44:07.999Z,64.43
2022-09-28T14:46:45.530Z,65.36
2022-09-28T14:50:01.757Z,66.13
2022-09-28T14:52:51.567Z,67.17
2022-09-28T14:55:28.504Z,67.14
2022-09-28T14:57:59.640Z,67.53
2022-09-28T15:00:31.895Z,67.40
2022-09-28T15:03:11.426Z,67.99
2022-09-28T15:05:47.063Z,68.87
2022-09-28T15:08:15.816Z,69.17
2022-09-28T15:10:48.670Z,68.86
2022-09-28T15:13:25.607Z,67.85
2022-09-28T15:16:00.489Z,67.18
2022-09-28T15:19:15.838Z,66.68
2022-09-28T15:21:47.649Z,66.68
2022-09-28T15:24:27.109Z,67.58
2022-09-28T15:26:56.598Z,68.57
2022-09-28T15:29:28.096Z,69.37
2022-09-28T15:31:56.058Z,69.71
2022-09-28T15:34:56.825Z,71.20
2022-09-28T15:37:33.122Z,72.34
2022-09-28T15:40:02.753Z,73.34
2022-09-28T15:42:37.592Z,74.20
2022-09-28T15:45:24.812Z,75.20
2022-09-28T15:47:57.567Z,75.83
2022-09-28T15:50:29.883Z,76.07
2022-09-28T15:53:04.214Z,76.12
2022-09-28T15:55:35.521Z,75.31
2022-09-28T15:58:17.696Z,75.74
2022-09-28T16:00:47.341Z,76.09
2022-09-28T16:03:28.904Z,76.99
2022-09-28T16:06:08.706Z,77.23
2022-09-28T16:08:43.704Z,77.44
2022-09-28T16:11:20.664Z,77.50
2022-09-28T16:14:01.534Z,77.54
2022-09-28T16:16:35.195Z,77.56
2022-09-28T16:19:04.150Z,78.27
2022-09-28T16:21:46.880Z,78.64
2022-09-28T16:24:26.272Z,78.74
2022-09-28T16:27:01.469Z,78.94
2022-09-28T16:29:40.021Z,78.58
2022-09-28T16:32:41.588Z,78.30
2022-09-28T16:35:29.786Z,78.01
2022-09-28T16:38:11.475Z,77.85
2022-09-28T16:40:46.058Z,77.88
2022-09-28T16:43:26.672Z,77.88
2022-09-28T16:45:56.633Z,78.63
2022-09-28T16:48:28.335Z,79.06
2022-09-28T16:50:56.435Z,78.84
2022-09-28T16:53:42.456Z,79.03
2022-09-28T16:56:13.396Z,78.83
2022-09-28T16:58:42.397Z,78.78
2022-09-28T17:01:13.299Z,79.01
2022-09-28T17:03:42.632Z,79.15
2022-09-28T17:06:13.163Z,79.28
2022-09-28T17:08:43.056Z,79.24
2022-09-28T17:11:20.452Z,76.60
2022-09-28T17:13:51.823Z,74.43
2022-09-28T17:16:43.026Z,75.32
2022-09-28T17:19:21.723Z,76.10
2022-09-28T17:21:50.988Z,76.72
2022-09-28T17:24:19.580Z,77.21
2022-09-28T17:26:52.622Z,78.05
2022-09-28T17:29:21.041Z,77.09
2022-09-28T17:31:49.537Z,77.33
2022-09-28T17:34:17.926Z,77.42
2022-09-28T17:36:46.456Z,77.71
2022-09-28T17:39:17.699Z,78.35
2022-09-28T17:41:46.043Z,77.90
2022-09-28T17:44:16.256Z,79.12
2022-09-28T17:46:48.568Z,79.38
2022-09-28T17:49:17.699Z,79.84
2022-09-28T17:51:45.901Z,81.08
2022-09-28T17:54:16.681Z,81.56
2022-09-28T17:56:44.745Z,82.65
2022-09-28T17:59:19.020Z,83.18
2022-09-28T18:01:48.147Z,83.21
2022-09-28T18:04:39.876Z,83.47
2022-09-28T18:07:05.370Z,83.51
2022-09-28T18:09:33.421Z,83.28
2022-09-28T18:12:05.680Z,83.63
2022-09-28T18:14:35.737Z,84.62
2022-09-28T18:17:03.864Z,85.19
2022-09-28T18:19:32.478Z,85.22
2022-09-28T18:22:01.343Z,85.50
2022-09-28T18:24:29.745Z,85.70
2022-09-28T18:26:57.760Z,85.91
2022-09-28T18:29:27.338Z,86.28
2022-09-28T18:31:59.307Z,86.16
2022-09-28T18:34:27.400Z,86.39
2022-09-28T18:36:55.472Z,86.68
2022-09-28T18:39:24.337Z,87.19
2022-09-28T18:41:52.334Z,87.43
2022-09-28T18:44:20.388Z,86.89
2022-09-28T18:46:48.609Z,86.96
2022-09-28T18:49:18.058Z,86.86
2022-09-28T18:51:46.099Z,86.55
2022-09-28T18:54:14.163Z,86.55
2022-09-28T18:56:42.270Z,86.45
2022-09-28T18:59:12.555Z,86.31
2022-09-28T19:01:41.799Z,85.83
2022-09-28T19:04:13.492Z,85.84
2022-09-28T19:06:44.686Z,85.97
2022-09-28T19:09:13.102Z,85.84
2022-09-28T19:11:41.220Z,85.78
2022-09-28T19:14:14.931Z,86.05
2022-09-28T19:16:44.604Z,86.18
2022-09-28T19:19:14.848Z,86.22
2022-09-28T19:21:45.288Z,86.46
2022-09-28T19:24:15.878Z,86.52
2022-09-28T19:26:45.171Z,87.05
2022-09-28T19:29:13.863Z,87.34
2022-09-28T19:31:43.293Z,87.86
2022-09-28T19:34:13.522Z,88.26
2022-09-28T19:36:44.081Z,88.29
2022-09-28T19:39:15.736Z,88.04
2022-09-28T19:41:49.537Z,87.80
2022-09-28T19:44:24.932Z,87.37
2022-09-28T19:46:55.603Z,87.47
2022-09-28T19:49:25.429Z,88.09
2022-09-28T19:54:56.417Z,88.55
2022-09-28T19:57:26.087Z,88.52
2022-09-28T19:59:57.881Z,87.92
2022-09-28T20:02:29.238Z,87.76
2022-09-28T20:04:57.375Z,87.46
2022-09-28T20:07:26.715Z,87.14
2022-09-28T20:09:54.711Z,86.87
2022-09-28T20:12:23.151Z,86.23
2022-09-28T20:14:51.233Z,86.21
2022-09-28T20:17:19.740Z,86.87
2022-09-28T20:19:47.925Z,86.76
2022-09-28T20:22:16.895Z,86.52
2022-09-28T20:24:46.255Z,86.68
2022-09-28T20:27:14.292Z,86.62
2022-09-28T20:29:42.986Z,86.66
2022-09-28T20:32:11.543Z,86.85
2022-09-28T20:34:39.539Z,86.90
2022-09-28T20:37:07.623Z,87.12
2022-09-28T20:39:35.667Z,87.10
2022-09-28T20:42:05.124Z,87.33
2022-09-28T20:44:33.129Z,87.19
2022-09-28T20:47:02.019Z,87.32
2022-09-28T20:49:30.016Z,87.40
2022-09-28T20:51:57.985Z,87.51
2022-09-28T20:54:26.584Z,87.59
2022-09-28T20:56:54.773Z,87.88
2022-09-28T20:59:26.416Z,87.98
2022-09-28T21:01:54.738Z,88.04
2022-09-28T21:04:22.844Z,87.97
2022-09-28T21:06:50.876Z,87.60
2022-09-28T21:09:18.936Z,87.55
2022-09-28T21:11:48.074Z,87.39
2022-09-28T21:14:16.119Z,87.25
2022-09-28T21:16:45.611Z,86.88
2022-09-28T21:19:13.605Z,87.03
2022-09-28T21:21:41.592Z,87.26
2022-09-28T21:24:09.945Z,87.79
2022-09-28T21:26:38.995Z,88.00
2022-09-28T21:29:11.052Z,88.37
2022-09-28T21:31:41.802Z,88.23
2022-09-28T21:34:14.341Z,88.67
2022-09-28T21:36:43.219Z,88.77
2022-09-28T21:39:11.737Z,89.04
2022-09-28T21:41:40.196Z,89.08
2022-09-28T21:44:08.519Z,89.03
2022-09-28T21:46:37.609Z,88.52
2022-09-28T21:49:08.719Z,88.49
2022-09-28T21:51:38.518Z,88.37
2022-09-28T21:54:07.027Z,88.28
2022-09-28T21:56:35.404Z,88.36
2022-09-28T21:59:03.500Z,88.30
2022-09-28T22:01:31.677Z,88.20
2022-09-28T22:03:59.920Z,87.35
2022-09-28T22:06:29.026Z,87.23
2022-09-28T22:08:59.176Z,87.26
2022-09-28T22:11:29.723Z,86.76
2022-09-28T22:14:00.648Z,86.48
2022-09-28T22:16:31.607Z,86.52
2022-09-28T22:19:00.412Z,87.17
2022-09-28T22:21:32.649Z,87.72
2022-09-28T22:24:04.645Z,88.16
2022-09-28T22:26:35.045Z,88.45
2022-09-28T22:29:06.314Z,87.92
2022-09-28T22:31:36.913Z,87.40
2022-09-28T22:34:05.614Z,86.57
2022-09-28T22:36:34.154Z,86.16
2022-09-28T22:39:04.117Z,85.85
2022-09-28T22:41:32.127Z,85.46
2022-09-28T22:44:00.678Z,85.53
2022-09-28T22:46:32.129Z,85.58
2022-09-28T22:49:01.214Z,85.86
2022-09-28T22:51:31.646Z,85.79
2022-09-28T22:54:00.235Z,84.96
2022-09-28T22:56:30.044Z,84.05
2022-09-28T22:58:58.600Z,83.63
2022-09-28T23:01:29.194Z,83.04
2022-09-28T23:03:59.336Z,82.10
2022-09-28T23:06:30.280Z,80.76
2022-09-28T23:08:58.450Z,81.52
2022-09-28T23:11:26.581Z,82.07
2022-09-28T23:13:58.465Z,82.28
2022-09-28T23:16:27.950Z,81.66
2022-09-28T23:18:57.074Z,80.90
2022-09-28T23:21:27.820Z,81.20
2022-09-28T23:23:58.794Z,81.94
2022-09-28T23:26:29.339Z,81.87
2022-09-28T23:29:00.109Z,80.71
2022-09-28T23:31:31.429Z,78.99
2022-09-28T23:34:01.156Z,79.26
2022-09-28T23:36:29.873Z,80.58
2022-09-28T23:38:58.745Z,80.43
2022-09-28T23:41:26.868Z,80.88
2022-09-28T23:43:54.893Z,80.78
2022-09-28T23:46:24.460Z,81.09
2022-09-28T23:48:52.834Z,80.99
2022-09-28T23:51:21.022Z,80.34
2022-09-28T23:53:49.040Z,80.74
2022-09-28T23:56:17.121Z,81.73
2022-09-28T23:58:45.164Z,81.94
